Time;durP1;ratioP1;P1;durP2;ratioP2;P2;SDS_P1;SDS_P2;PMS_P1;PMS_P2;Temp;Humidity;BMP_temperature;BMP_pressure;BME280_temperature;BME280_humidity;BME280_pressure;Samples;Min_cycle;Max_cycle;Signal;HPM_P1;HPM_P2
2023/06/02 00:01:09;;;;;;;8.73;2.80;;;16.80;68.80;;;;;;5109080;27;45531;-64
2023/06/02 00:03:37;;;;;;;6.82;2.78;;;16.80;68.40;;;;;;5122077;27;46086;-64
2023/06/02 00:06:08;;;;;;;5.90;2.80;;;16.70;68.50;;;;;;5120986;27;45750;-64
2023/06/02 00:08:38;;;;;;;5.80;2.58;;;16.80;68.70;;;;;;5125132;27;45255;-65
2023/06/02 00:11:05;;;;;;;7.95;2.90;;;16.70;68.60;;;;;;5125806;27;45331;-64
2023/06/02 00:13:33;;;;;;;9.48;3.92;;;16.90;67.90;;;;;;5122437;27;48358;-64
2023/06/02 00:16:00;;;;;;;7.32;3.17;;;16.90;67.80;;;;;;5123211;27;45271;-64
2023/06/02 00:18:27;;;;;;;9.43;4.05;;;16.90;68.00;;;;;;5122724;27;45641;-64
2023/06/02 00:20:56;;;;;;;8.75;3.72;;;16.80;67.40;;;;;;5119186;27;45558;-64
2023/06/02 00:23:25;;;;;;;8.32;3.42;;;16.90;67.50;;;;;;5118412;27;47238;-64
2023/06/02 00:25:52;;;;;;;6.25;3.67;;;16.90;67.70;;;;;;5124521;27;45475;-64
2023/06/02 00:28:18;;;;;;;7.90;4.30;;;16.80;69.00;;;;;;5120911;27;45370;-64
2023/06/02 00:30:45;;;;;;;7.88;4.55;;;16.80;68.00;;;;;;5111172;27;45497;-65
2023/06/02 00:33:12;;;;;;;6.38;4.05;;;16.80;68.00;;;;;;5110952;27;47358;-65
2023/06/02 00:35:39;;;;;;;7.88;4.28;;;16.80;68.30;;;;;;5113304;27;45457;-65
2023/06/02 00:38:05;;;;;;;7.43;3.85;;;16.70;67.90;;;;;;5109712;27;45480;-64
2023/06/02 00:40:34;;;;;;;6.47;3.20;;;16.70;68.00;;;;;;5110030;27;45470;-64
2023/06/02 00:43:01;;;;;;;7.07;3.95;;;16.70;67.40;;;;;;5110616;27;46348;-64
2023/06/02 00:45:28;;;;;;;6.28;3.40;;;16.70;67.70;;;;;;5112995;27;45390;-65
2023/06/02 00:47:55;;;;;;;10.88;3.50;;;16.60;67.10;;;;;;5118101;27;45220;-64
2023/06/02 00:50:25;;;;;;;7.43;3.13;;;16.60;67.50;;;;;;5123395;27;45447;-65
2023/06/02 00:52:55;;;;;;;5.22;3.13;;;16.70;67.80;;;;;;5109872;27;46465;-64
2023/06/02 00:55:22;;;;;;;8.02;3.10;;;16.70;67.30;;;;;;5122957;27;45370;-64
2023/06/02 00:57:51;;;;;;;8.90;3.00;;;16.70;67.30;;;;;;5114438;27;45315;-64
2023/06/02 01:00:18;;;;;;;7.13;2.90;;;16.70;67.00;;;;;;5123772;27;45441;-64
2023/06/02 01:02:46;;;;;;;5.47;2.60;;;16.80;67.40;;;;;;5114376;27;46549;-64
2023/06/02 01:05:14;;;;;;;4.28;2.08;;;16.80;66.70;;;;;;5119525;27;45355;-64
2023/06/02 01:07:44;;;;;;;7.80;2.10;;;16.70;67.50;;;;;;5112146;27;45484;-64
2023/06/02 01:10:13;;;;;;;3.83;2.13;;;16.70;67.00;;;;;;5118171;27;45287;-65
2023/06/02 01:12:40;;;;;;;8.07;2.25;;;16.80;67.00;;;;;;5120626;27;47804;-65
2023/06/02 01:15:09;;;;;;;4.43;2.38;;;16.80;66.80;;;;;;5116674;27;45623;-65
2023/06/02 01:17:36;;;;;;;6.50;2.40;;;16.80;66.90;;;;;;5121118;27;45278;-64
2023/06/02 01:20:05;;;;;;;4.68;2.75;;;16.80;66.50;;;;;;5119263;27;45479;-63
2023/06/02 01:22:38;;;;;;;11.40;2.30;;;16.70;67.00;;;;;;5110664;27;46585;-65
2023/06/02 01:25:17;;;;;;;4.18;2.10;;;16.70;66.80;;;;;;5113625;27;45421;-64
2023/06/02 01:27:44;;;;;;;5.10;1.90;;;16.80;66.80;;;;;;5118718;27;45434;-64
2023/06/02 01:30:12;;;;;;;3.80;1.80;;;16.70;66.60;;;;;;5123492;27;45410;-64
2023/06/02 01:32:43;;;;;;;5.63;2.00;;;16.70;67.10;;;;;;5116872;27;46607;-64
2023/06/02 01:35:13;;;;;;;5.53;2.03;;;16.50;67.00;;;;;;5119714;27;45341;-64
2023/06/02 01:37:44;;;;;;;4.93;1.92;;;16.40;67.20;;;;;;5117327;27;45496;-64
2023/06/02 01:40:13;;;;;;;5.28;2.05;;;16.60;67.30;;;;;;5115437;27;45338;-64
2023/06/02 01:42:41;;;;;;;5.63;2.13;;;16.60;66.70;;;;;;5118670;27;46418;-64
2023/06/02 01:45:09;;;;;;;3.13;1.77;;;16.60;67.10;;;;;;5116899;27;45480;-65
2023/06/02 01:47:36;;;;;;;5.03;2.53;;;16.60;67.20;;;;;;5122258;27;45449;-64
2023/06/02 01:50:04;;;;;;;6.97;3.40;;;16.60;67.50;;;;;;5123543;27;45423;-65
2023/06/02 01:52:30;;;;;;;7.47;3.47;;;16.60;67.00;;;;;;5120033;27;46640;-64
2023/06/02 01:54:57;;;;;;;5.35;3.85;;;16.50;67.10;;;;;;5122933;27;45262;-64
2023/06/02 01:57:26;;;;;;;13.27;4.72;;;16.70;66.10;;;;;;5122351;27;45388;-64
2023/06/02 01:59:53;;;;;;;11.35;4.78;;;16.80;65.70;;;;;;5116931;27;45491;-64
2023/06/02 02:02:20;;;;;;;12.65;6.65;;;16.90;65.10;;;;;;5118628;27;46070;-64
2023/06/02 02:04:46;;;;;;;9.18;5.20;;;16.80;64.90;;;;;;5117180;27;45469;-64
2023/06/02 02:07:19;;;;;;;8.48;4.97;;;16.70;65.00;;;;;;5117348;27;45453;-64
2023/06/02 02:09:46;;;;;;;10.82;5.88;;;16.70;64.90;;;;;;5121675;27;45265;-64
2023/06/02 02:12:13;;;;;;;12.18;6.00;;;16.70;64.90;;;;;;5117887;27;46244;-65
2023/06/02 02:14:41;;;;;;;10.20;6.57;;;16.70;65.10;;;;;;5122260;27;45303;-64
2023/06/02 02:17:10;;;;;;;10.45;6.72;;;16.70;64.90;;;;;;5116840;27;45401;-65
2023/06/02 02:19:37;;;;;;;10.00;6.50;;;16.80;64.50;;;;;;5111910;27;45624;-65
2023/06/02 02:22:03;;;;;;;9.43;7.43;;;17.00;64.50;;;;;;5109698;27;47568;-65
2023/06/02 02:24:30;;;;;;;10.65;7.85;;;17.10;64.50;;;;;;5104655;27;45287;-64
2023/06/02 02:26:58;;;;;;;13.65;8.20;;;17.20;63.80;;;;;;5116299;27;45405;-65
2023/06/02 02:29:24;;;;;;;10.25;6.55;;;17.20;63.70;;;;;;5123583;27;45564;-65
2023/06/02 02:31:54;;;;;;;11.93;6.57;;;17.30;63.30;;;;;;5109535;27;46612;-65
2023/06/02 02:34:22;;;;;;;9.43;5.95;;;17.30;64.00;;;;;;5103649;27;45272;-64
2023/06/02 02:36:50;;;;;;;11.25;6.15;;;17.50;63.10;;;;;;5109921;27;45366;-64
2023/06/02 02:39:17;;;;;;;8.02;4.70;;;17.40;62.60;;;;;;5119868;27;45390;-64
2023/06/02 02:41:44;;;;;;;14.80;6.38;;;17.20;62.70;;;;;;5110236;27;47259;-64
2023/06/02 02:44:10;;;;;;;10.38;5.63;;;17.10;63.30;;;;;;5121242;27;45397;-64
2023/06/02 02:46:37;;;;;;;15.75;4.93;;;17.10;63.80;;;;;;5122726;27;45201;-64
2023/06/02 02:49:06;;;;;;;9.80;6.10;;;17.00;63.80;;;;;;5114359;27;45470;-65
2023/06/02 02:51:33;;;;;;;12.95;7.05;;;16.90;63.90;;;;;;5114310;27;46331;-64
2023/06/02 02:54:00;;;;;;;11.80;7.05;;;16.70;64.50;;;;;;5116432;27;45316;-65
2023/06/02 02:56:27;;;;;;;13.07;8.30;;;16.80;64.00;;;;;;5110567;27;45426;-65
2023/06/02 02:58:57;;;;;;;16.20;7.00;;;16.80;63.70;;;;;;5117850;27;45495;-64
2023/06/02 03:01:24;;;;;;;15.50;6.85;;;16.70;63.60;;;;;;5118303;27;47528;-64
2023/06/02 03:03:51;;;;;;;13.07;6.63;;;16.60;64.30;;;;;;5126375;27;45356;-64
2023/06/02 03:06:19;;;;;;;12.27;7.38;;;16.60;64.50;;;;;;5124869;27;45228;-65
2023/06/02 03:08:46;;;;;;;16.77;8.98;;;16.60;64.00;;;;;;5121221;27;45616;-65
2023/06/02 03:11:14;;;;;;;18.52;10.98;;;16.60;64.10;;;;;;5125929;27;45347;-64
2023/06/02 03:13:41;;;;;;;22.95;12.48;;;16.50;64.10;;;;;;5123933;27;45272;-64
2023/06/02 03:16:08;;;;;;;20.85;13.43;;;16.50;64.40;;;;;;5125292;27;45509;-64
2023/06/02 03:18:34;;;;;;;15.13;8.52;;;16.50;63.50;;;;;;5113107;27;46677;-64
2023/06/02 03:21:02;;;;;;;7.50;4.00;;;16.40;64.20;;;;;;5125882;27;45463;-64
2023/06/02 03:23:30;;;;;;;9.63;3.88;;;16.30;65.10;;;;;;5126252;27;45517;-64
2023/06/02 03:25:57;;;;;;;6.57;3.20;;;16.30;65.40;;;;;;5125686;27;45362;-64
2023/06/02 03:28:23;;;;;;;15.18;4.22;;;16.40;65.10;;;;;;5124695;27;45300;-64
2023/06/02 03:30:50;;;;;;;8.68;3.38;;;16.40;64.20;;;;;;5116484;27;47437;-64
2023/06/02 03:33:17;;;;;;;9.40;3.05;;;16.40;64.50;;;;;;5116752;27;45264;-64
2023/06/02 03:35:44;;;;;;;10.60;3.33;;;16.40;64.90;;;;;;5113683;27;45264;-64
2023/06/02 03:38:11;;;;;;;9.02;3.13;;;16.40;64.90;;;;;;5118609;27;45430;-64
2023/06/02 03:40:39;;;;;;;8.52;3.25;;;16.40;65.00;;;;;;5121490;27;48097;-64
2023/06/02 03:43:06;;;;;;;4.35;2.85;;;16.30;64.90;;;;;;5124149;27;45351;-64
2023/06/02 03:45:32;;;;;;;8.55;2.83;;;16.30;64.90;;;;;;5125716;27;45374;-64
2023/06/02 03:47:59;;;;;;;5.65;2.78;;;16.40;65.00;;;;;;5119687;27;45434;-64
2023/06/02 03:50:26;;;;;;;15.40;4.32;;;16.30;64.70;;;;;;5121453;27;46316;-64
2023/06/02 03:52:54;;;;;;;7.97;4.50;;;16.20;65.00;;;;;;5117615;27;45301;-65
2023/06/02 03:55:22;;;;;;;13.95;5.97;;;16.20;64.50;;;;;;5121463;27;45535;-64
2023/06/02 03:57:50;;;;;;;13.27;6.18;;;16.10;63.60;;;;;;5120820;27;45384;-64
2023/06/02 04:00:17;;;;;;;13.55;6.57;;;16.20;64.30;;;;;;5126801;27;45496;-64
2023/06/02 04:02:44;;;;;;;14.48;6.20;;;16.40;63.70;;;;;;5118747;27;45445;-64
2023/06/02 04:05:11;;;;;;;12.45;6.25;;;16.40;63.60;;;;;;5123980;27;45382;-64
2023/06/02 04:07:38;;;;;;;16.83;7.13;;;16.40;63.20;;;;;;5115169;27;45621;-64
2023/06/02 04:10:05;;;;;;;13.25;7.00;;;16.60;63.00;;;;;;5120725;27;47594;-64
2023/06/02 04:12:32;;;;;;;12.25;7.13;;;16.60;62.70;;;;;;5119330;27;45276;-64
2023/06/02 04:15:01;;;;;;;13.95;7.75;;;16.70;62.30;;;;;;5118504;27;45455;-65
2023/06/02 04:17:28;;;;;;;15.13;7.93;;;16.70;62.50;;;;;;5122812;27;45272;-64
2023/06/02 04:19:55;;;;;;;13.35;6.47;;;16.60;62.20;;;;;;5118829;27;47360;-66
2023/06/02 04:22:22;;;;;;;11.57;6.53;;;16.40;62.50;;;;;;5125184;27;45402;-66
2023/06/02 04:24:49;;;;;;;13.95;6.43;;;16.50;62.10;;;;;;5115219;27;45994;-65
2023/06/02 04:27:17;;;;;;;13.23;6.03;;;16.60;62.00;;;;;;5124566;27;45450;-65
2023/06/02 04:29:43;;;;;;;13.80;6.55;;;16.60;62.10;;;;;;5121091;27;46828;-65
2023/06/02 04:32:11;;;;;;;10.15;6.53;;;16.60;61.70;;;;;;5120516;27;45278;-65
2023/06/02 04:34:38;;;;;;;16.85;6.60;;;16.60;62.30;;;;;;5113118;27;45293;-64
2023/06/02 04:37:07;;;;;;;13.48;6.20;;;16.50;61.70;;;;;;5111172;27;45279;-65
2023/06/02 04:39:35;;;;;;;13.75;7.30;;;16.60;61.60;;;;;;5124069;27;46540;-64
2023/06/02 04:42:03;;;;;;;12.60;7.15;;;16.50;62.50;;;;;;5120890;27;45315;-64
2023/06/02 04:44:30;;;;;;;17.42;7.50;;;16.50;60.90;;;;;;5122594;27;45381;-65
2023/06/02 04:46:56;;;;;;;13.02;7.03;;;16.40;61.10;;;;;;5118414;27;45427;-65
2023/06/02 04:49:25;;;;;;;13.65;6.82;;;16.40;61.50;;;;;;5124696;27;47520;-65
2023/06/02 04:51:55;;;;;;;12.68;6.38;;;16.50;61.20;;;;;;5124990;27;45298;-64
2023/06/02 04:54:22;;;;;;;17.58;6.15;;;16.50;61.50;;;;;;5122284;27;45298;-64
2023/06/02 04:56:48;;;;;;;9.20;4.90;;;16.40;60.90;;;;;;5122832;27;45307;-64
2023/06/02 04:59:15;;;;;;;11.95;4.55;;;16.50;60.40;;;;;;5124524;27;46639;-65
2023/06/02 05:01:42;;;;;;;16.90;5.47;;;16.50;61.40;;;;;;5120640;27;45698;-64
2023/06/02 05:04:09;;;;;;;14.50;6.82;;;16.60;61.90;;;;;;5119806;27;45523;-65
2023/06/02 05:06:37;;;;;;;10.85;6.40;;;16.60;61.00;;;;;;5115340;27;45609;-65
2023/06/02 05:09:04;;;;;;;9.18;5.45;;;16.60;60.90;;;;;;5123646;27;45412;-64
2023/06/02 05:11:30;;;;;;;13.57;4.72;;;16.60;61.40;;;;;;5119368;27;45339;-64
2023/06/02 05:13:57;;;;;;;10.52;4.53;;;16.60;61.50;;;;;;5116102;27;45254;-64
2023/06/02 05:16:24;;;;;;;12.95;5.10;;;16.60;61.20;;;;;;5120438;27;45541;-65
2023/06/02 05:18:51;;;;;;;10.23;4.45;;;16.60;61.10;;;;;;5117418;27;48030;-64
2023/06/02 05:21:18;;;;;;;12.57;4.40;;;16.60;61.10;;;;;;5122713;27;45453;-65
2023/06/02 05:23:46;;;;;;;17.20;4.90;;;16.60;61.30;;;;;;5118632;27;45402;-64
2023/06/02 05:26:13;;;;;;;11.93;5.00;;;16.60;61.20;;;;;;5120158;27;45276;-65
2023/06/02 05:28:40;;;;;;;12.38;4.68;;;16.60;61.70;;;;;;5120207;27;47638;-64
2023/06/02 05:31:07;;;;;;;14.82;5.13;;;16.60;61.50;;;;;;5116194;27;45720;-65
2023/06/02 05:33:34;;;;;;;13.77;6.07;;;16.60;62.70;;;;;;5120763;27;45567;-65
2023/06/02 05:36:01;;;;;;;13.70;5.75;;;16.70;61.40;;;;;;5109072;27;45299;-64
2023/06/02 05:38:27;;;;;;;16.27;6.03;;;16.60;61.30;;;;;;5112712;27;47651;-65
2023/06/02 05:40:55;;;;;;;13.55;6.13;;;16.50;61.70;;;;;;5120593;27;45664;-65
2023/06/02 05:43:22;;;;;;;18.55;6.85;;;16.40;62.30;;;;;;5114517;27;45320;-66
2023/06/02 05:45:49;;;;;;;19.95;8.18;;;16.40;61.40;;;;;;5120796;27;45442;-65
2023/06/02 05:48:16;;;;;;;18.02;9.15;;;15.80;62.30;;;;;;5122819;27;47593;-64
2023/06/02 05:50:43;;;;;;;18.48;7.85;;;15.40;63.20;;;;;;5119819;27;45455;-65
2023/06/02 05:53:10;;;;;;;19.33;7.47;;;15.30;63.60;;;;;;5112896;27;45366;-65
2023/06/02 05:55:38;;;;;;;18.13;6.90;;;15.30;64.30;;;;;;5111452;27;45346;-65
2023/06/02 05:58:06;;;;;;;15.32;6.93;;;15.30;64.70;;;;;;5108902;27;46509;-64
2023/06/02 06:00:33;;;;;;;18.88;7.80;;;15.40;64.20;;;;;;5114040;27;45617;-64
2023/06/02 06:03:00;;;;;;;22.30;10.32;;;15.40;64.30;;;;;;5123315;27;45546;-65
2023/06/02 06:05:27;;;;;;;18.45;8.50;;;15.30;64.30;;;;;;5123103;27;45620;-64
2023/06/02 06:07:54;;;;;;;18.55;7.95;;;15.30;64.40;;;;;;5123124;27;46613;-64
2023/06/02 06:10:20;;;;;;;19.60;8.20;;;15.30;64.70;;;;;;5123841;27;45496;-64
2023/06/02 06:12:47;;;;;;;20.23;7.00;;;15.10;64.90;;;;;;5115715;27;45220;-64
2023/06/02 06:15:16;;;;;;;22.23;10.20;;;15.00;65.60;;;;;;5115670;27;45343;-64
2023/06/02 06:17:49;;;;;;;23.55;10.05;;;15.00;65.10;;;;;;5122608;27;45253;-64
2023/06/02 06:20:16;;;;;;;18.65;9.75;;;14.90;64.70;;;;;;5118268;27;45498;-64
2023/06/02 06:22:43;;;;;;;30.27;13.90;;;15.20;64.90;;;;;;5123564;27;45475;-64
2023/06/02 06:25:10;;;;;;;25.33;12.65;;;14.80;64.10;;;;;;5115612;27;45406;-64
2023/06/02 06:27:37;;;;;;;17.25;9.30;;;14.60;65.50;;;;;;5113574;27;46438;-65
2023/06/02 06:30:04;;;;;;;22.50;9.30;;;14.90;65.30;;;;;;5116482;27;45323;-64
2023/06/02 06:32:32;;;;;;;14.07;7.25;;;15.00;64.50;;;;;;5119578;27;45324;-65
2023/06/02 06:35:00;;;;;;;15.60;7.22;;;15.60;64.40;;;;;;5121291;27;45370;-64
2023/06/02 06:37:27;;;;;;;20.50;9.63;;;16.10;62.80;;;;;;5122979;27;48010;-64
2023/06/02 06:39:54;;;;;;;15.25;9.13;;;16.30;62.50;;;;;;5116634;27;45380;-64
2023/06/02 06:42:22;;;;;;;17.17;9.02;;;16.40;62.60;;;;;;5121707;27;45641;-64
2023/06/02 06:44:49;;;;;;;17.52;8.88;;;16.40;61.90;;;;;;5114220;27;45291;-64
2023/06/02 06:47:15;;;;;;;18.10;8.65;;;16.50;61.80;;;;;;5114524;27;46330;-65
2023/06/02 06:49:44;;;;;;;19.08;9.13;;;16.60;61.30;;;;;;5117837;27;45380;-64
2023/06/02 06:52:10;;;;;;;17.80;9.30;;;16.40;61.50;;;;;;5117753;27;45279;-65
2023/06/02 06:54:37;;;;;;;17.25;8.57;;;16.50;61.90;;;;;;5123515;27;45563;-64
2023/06/02 06:57:05;;;;;;;17.38;10.00;;;16.60;61.70;;;;;;5121360;27;46951;-66
2023/06/02 06:59:32;;;;;;;21.13;10.85;;;16.60;61.00;;;;;;5122847;27;45644;-64
2023/06/02 07:01:59;;;;;;;19.45;11.02;;;16.70;60.80;;;;;;5117350;27;45443;-64
2023/06/02 07:04:26;;;;;;;22.70;10.63;;;16.70;61.00;;;;;;5118057;27;45611;-64
2023/06/02 07:06:54;;;;;;;19.98;10.60;;;16.70;61.10;;;;;;5120826;27;46345;-64
2023/06/02 07:09:21;;;;;;;22.30;10.73;;;16.80;60.70;;;;;;5114024;27;45574;-64
2023/06/02 07:11:47;;;;;;;19.92;10.57;;;17.00;60.70;;;;;;5124445;27;45291;-64
2023/06/02 07:14:14;;;;;;;17.17;9.70;;;17.10;60.40;;;;;;5118542;27;45370;-64
2023/06/02 07:16:45;;;;;;;18.33;9.68;;;17.20;59.90;;;;;;5108203;27;46464;-64
2023/06/02 07:19:12;;;;;;;17.67;9.45;;;17.20;59.70;;;;;;5117974;27;46376;-64
2023/06/02 07:21:39;;;;;;;15.43;8.77;;;17.40;60.10;;;;;;5117627;27;45389;-65
2023/06/02 07:24:07;;;;;;;15.75;10.18;;;17.50;59.10;;;;;;5121341;27;45430;-64
2023/06/02 07:26:34;;;;;;;17.50;11.05;;;17.50;60.20;;;;;;5123471;27;48295;-66
2023/06/02 07:29:01;;;;;;;24.83;11.65;;;17.60;58.60;;;;;;5119979;27;45245;-66
2023/06/02 07:31:28;;;;;;;20.77;11.75;;;17.50;57.20;;;;;;5114058;27;45223;-66
2023/06/02 07:33:56;;;;;;;19.60;10.75;;;17.20;57.70;;;;;;5114239;27;45505;-65
2023/06/02 07:36:23;;;;;;;19.40;10.80;;;17.20;58.10;;;;;;5113889;27;47263;-64
2023/06/02 07:38:50;;;;;;;18.25;10.43;;;17.20;58.50;;;;;;5121347;27;45599;-65
2023/06/02 07:41:19;;;;;;;25.48;12.25;;;17.10;58.10;;;;;;5121343;27;45344;-64
2023/06/02 07:43:46;;;;;;;21.90;10.98;;;16.90;58.10;;;;;;5116087;27;45446;-64
2023/06/02 07:46:13;;;;;;;20.83;11.30;;;16.70;58.90;;;;;;5125392;27;45495;-65
2023/06/02 07:48:40;;;;;;;20.20;10.77;;;16.70;58.90;;;;;;5116732;27;45751;-65
2023/06/02 07:51:07;;;;;;;20.33;10.20;;;16.70;59.50;;;;;;5121683;27;45301;-64
2023/06/02 07:53:34;;;;;;;19.23;10.15;;;16.90;59.30;;;;;;5117031;27;45528;-64
2023/06/02 07:56:01;;;;;;;21.58;10.70;;;16.80;58.80;;;;;;5125557;27;46328;-64
2023/06/02 07:58:29;;;;;;;22.73;11.43;;;17.00;58.90;;;;;;5116508;27;45557;-64
2023/06/02 08:00:56;;;;;;;22.90;10.38;;;17.10;58.30;;;;;;5117107;27;45304;-64
2023/06/02 08:03:23;;;;;;;18.75;11.18;;;17.20;58.00;;;;;;5123893;27;45430;-64
2023/06/02 08:05:49;;;;;;;21.63;10.85;;;17.10;57.50;;;;;;5120595;27;45301;-64
2023/06/02 08:08:16;;;;;;;22.23;10.35;;;17.10;58.10;;;;;;5113230;27;45490;-64
2023/06/02 08:10:43;;;;;;;20.45;9.68;;;17.00;58.50;;;;;;5115636;27;45339;-65
2023/06/02 08:13:11;;;;;;;19.77;9.75;;;17.10;57.80;;;;;;5122134;27;45616;-64
2023/06/02 08:15:39;;;;;;;19.67;10.60;;;16.90;58.30;;;;;;5123324;27;47687;-64
2023/06/02 08:18:13;;;;;;;15.25;9.45;;;16.90;58.10;;;;;;5119579;27;45659;-65
2023/06/02 08:20:41;;;;;;;21.77;11.38;;;17.00;58.80;;;;;;5113450;27;45335;-64
2023/06/02 08:23:08;;;;;;;19.90;11.88;;;17.00;58.10;;;;;;5119557;27;45410;-64
2023/06/02 08:25:38;;;;;;;18.55;12.50;;;16.70;58.50;;;;;;5121766;27;47408;-64
2023/06/02 08:28:05;;;;;;;19.80;10.38;;;16.30;58.80;;;;;;5113378;27;45250;-65
2023/06/02 08:30:33;;;;;;;18.58;11.07;;;15.80;60.10;;;;;;5124145;27;45250;-64
2023/06/02 08:33:03;;;;;;;24.98;11.82;;;15.40;60.80;;;;;;5117050;27;45706;-64
2023/06/02 08:35:30;;;;;;;20.85;9.80;;;15.10;60.90;;;;;;5116170;27;45415;-64
2023/06/02 08:37:57;;;;;;;15.43;9.63;;;15.10;62.60;;;;;;5123864;27;45322;-64
2023/06/02 08:40:26;;;;;;;19.23;10.73;;;15.40;61.50;;;;;;5123726;27;45388;-64
2023/06/02 08:42:53;;;;;;;17.63;9.98;;;15.20;61.00;;;;;;5118262;27;45374;-64
2023/06/02 08:45:22;;;;;;;17.00;10.10;;;15.40;61.50;;;;;;5124230;27;45228;-65
2023/06/02 08:47:54;;;;;;;16.83;9.90;;;15.70;60.80;;;;;;5117660;27;45544;-64
2023/06/02 08:50:24;;;;;;;13.43;8.63;;;15.50;62.10;;;;;;5121659;27;45271;-64
2023/06/02 08:52:53;;;;;;;15.15;8.00;;;15.80;61.50;;;;;;5120376;27;45381;-64
2023/06/02 08:55:20;;;;;;;18.52;7.85;;;15.90;60.30;;;;;;5105845;27;46396;-64
2023/06/02 08:57:47;;;;;;;12.77;7.65;;;16.10;60.80;;;;;;5115860;27;45380;-64
2023/06/02 09:00:15;;;;;;;17.83;7.70;;;16.50;60.40;;;;;;5107915;27;45311;-64
2023/06/02 09:02:41;;;;;;;16.65;6.32;;;16.80;60.00;;;;;;5119112;27;45251;-64
2023/06/02 09:05:09;;;;;;;10.98;5.80;;;16.70;59.80;;;;;;5120092;27;46636;-64
2023/06/02 09:07:38;;;;;;;17.67;6.68;;;16.70;59.60;;;;;;5114501;27;45324;-64
2023/06/02 09:10:06;;;;;;;11.23;7.47;;;16.80;59.20;;;;;;5117788;27;45342;-64
2023/06/02 09:12:47;;;;;;;23.52;8.13;;;16.90;58.60;;;;;;5110450;27;45285;-64
2023/06/02 09:15:15;;;;;;;21.83;8.45;;;16.80;59.10;;;;;;5118792;27;47671;-64
2023/06/02 09:17:42;;;;;;;12.93;7.13;;;16.80;59.10;;;;;;5103855;27;45281;-65
2023/06/02 09:20:11;;;;;;;17.45;7.20;;;16.90;58.60;;;;;;5112568;27;45263;-64
2023/06/02 09:22:53;;;;;;;18.38;7.85;;;17.00;58.50;;;;;;5115465;27;45318;-65
2023/06/02 09:25:24;;;;;;;13.02;6.28;;;17.00;58.70;;;;;;5122826;27;48445;-64
2023/06/02 09:27:52;;;;;;;10.75;5.82;;;17.00;58.70;;;;;;5123618;27;45310;-64
2023/06/02 09:30:19;;;;;;;13.77;5.78;;;16.80;58.80;;;;;;5122745;27;45381;-64
2023/06/02 09:32:52;;;;;;;15.32;5.50;;;17.00;57.90;;;;;;5116464;27;45263;-65
2023/06/02 09:35:35;;;;;;;11.93;6.50;;;16.90;57.90;;;;;;5123227;27;48282;-64
2023/06/02 09:38:05;;;;;;;12.15;6.20;;;17.10;57.10;;;;;;5116414;27;45259;-64
2023/06/02 09:40:33;;;;;;;12.30;6.22;;;17.10;58.00;;;;;;5124132;27;45635;-64
2023/06/02 09:43:01;;;;;;;19.00;7.50;;;17.10;58.30;;;;;;5123001;27;45283;-65
2023/06/02 09:45:28;;;;;;;19.00;6.75;;;16.90;56.90;;;;;;5123406;27;46345;-64
2023/06/02 09:47:54;;;;;;;17.15;6.63;;;17.00;57.70;;;;;;5115433;27;45428;-64
2023/06/02 09:50:36;;;;;;;13.73;6.72;;;17.00;57.70;;;;;;5115415;27;45353;-64
2023/06/02 09:53:06;;;;;;;15.73;6.13;;;17.20;57.60;;;;;;5112104;27;45343;-64
2023/06/02 09:55:35;;;;;;;16.52;7.32;;;17.50;57.30;;;;;;5115588;27;45447;-64
2023/06/02 09:58:02;;;;;;;12.95;6.60;;;17.50;56.60;;;;;;5122862;27;45465;-64
2023/06/02 10:00:29;;;;;;;12.85;6.25;;;17.50;57.00;;;;;;5123121;27;45424;-65
2023/06/02 10:02:56;;;;;;;11.82;6.90;;;17.40;56.30;;;;;;5118658;27;45399;-65
2023/06/02 10:05:23;;;;;;;17.20;7.05;;;17.50;57.00;;;;;;5122388;27;45605;-64
2023/06/02 10:08:01;;;;;;;15.45;6.97;;;17.40;56.70;;;;;;5121894;27;45492;-64
2023/06/02 10:10:42;;;;;;;13.50;6.45;;;17.40;56.60;;;;;;5109068;27;45326;-64
2023/06/02 10:13:26;;;;;;;16.42;6.53;;;17.20;56.70;;;;;;5106337;27;45477;-64
2023/06/02 10:16:16;;;;;;;15.13;6.57;;;17.30;57.00;;;;;;5115465;27;47052;-64
2023/06/02 10:19:19;;;;;;;16.67;7.13;;;17.20;57.50;;;;;;5118459;27;45541;-65
2023/06/02 10:22:02;;;;;;;11.60;6.60;;;17.20;57.10;;;;;;5079293;27;45366;-66
2023/06/02 10:24:38;;;;;;;9.23;6.10;;;17.30;57.60;;;;;;5110715;27;45386;-64
2023/06/02 10:27:20;;;;;;;14.93;6.55;;;17.30;58.10;;;;;;5120543;27;48405;-64
2023/06/02 10:29:51;;;;;;;14.50;7.22;;;17.30;56.80;;;;;;5117105;27;45371;-66
2023/06/02 10:32:22;;;;;;;15.73;7.47;;;17.20;57.60;;;;;;5116122;27;45425;-65
2023/06/02 10:34:50;;;;;;;15.85;7.85;;;17.20;58.00;;;;;;5118984;27;45536;-66
2023/06/02 10:37:19;;;;;;;12.50;6.63;;;17.20;56.50;;;;;;5108257;27;46764;-64
2023/06/02 10:39:52;;;;;;;17.40;7.22;;;17.10;58.20;;;;;;5114483;27;45649;-64
2023/06/02 10:42:21;;;;;;;14.25;6.65;;;17.30;57.70;;;;;;5113902;27;45398;-64
2023/06/02 10:44:48;;;;;;;18.02;7.15;;;17.40;57.40;;;;;;5122169;27;45317;-65
2023/06/02 10:47:36;;;;;;;14.95;7.38;;;17.40;57.50;;;;;;5118562;27;46319;-66
2023/06/02 10:50:06;;;;;;;15.55;7.55;;;17.40;57.00;;;;;;5116839;27;45285;-64
2023/06/02 10:52:34;;;;;;;14.20;7.43;;;17.40;57.00;;;;;;5114502;27;45382;-64
2023/06/02 10:55:27;;;;;;;14.75;6.78;;;17.40;57.10;;;;;;5121223;27;45405;-64
2023/06/02 10:57:56;;;;;;;20.98;6.80;;;17.20;57.70;;;;;;5121283;27;46257;-64
2023/06/02 11:00:45;;;;;;;12.70;5.68;;;17.30;57.50;;;;;;5118173;27;45447;-64
2023/06/02 11:03:33;;;;;;;11.38;6.15;;;17.50;56.60;;;;;;5121890;27;45586;-64
2023/06/02 11:06:22;;;;;;;11.15;5.97;;;17.60;57.20;;;;;;5119451;27;45623;-64
2023/06/02 11:08:53;;;;;;;14.10;5.80;;;17.70;56.30;;;;;;5120481;27;47512;-65
2023/06/02 11:11:50;;;;;;;17.13;6.43;;;17.70;56.20;;;;;;5116425;27;45391;-64
2023/06/02 11:14:18;;;;;;;12.32;5.93;;;17.60;56.70;;;;;;5119023;27;45326;-65
2023/06/02 11:16:45;;;;;;;10.30;6.45;;;17.60;57.00;;;;;;5118577;27;45226;-64
2023/06/02 11:19:13;;;;;;;10.40;5.97;;;17.50;56.30;;;;;;5121542;27;45430;-64
2023/06/02 11:21:40;;;;;;;15.73;6.22;;;17.30;57.70;;;;;;5123615;27;45359;-65
2023/06/02 11:24:08;;;;;;;12.88;5.65;;;17.30;57.10;;;;;;5124305;27;45336;-65
2023/06/02 11:26:48;;;;;;;9.35;4.68;;;17.60;57.70;;;;;;5117313;27;45431;-64
2023/06/02 11:29:19;;;;;;;13.73;5.40;;;17.90;56.70;;;;;;5114390;27;46610;-64
2023/06/02 11:31:49;;;;;;;12.25;4.50;;;17.90;55.80;;;;;;5116835;27;45477;-64
2023/06/02 11:34:17;;;;;;;14.55;4.25;;;17.80;55.90;;;;;;5114186;27;45310;-65
2023/06/02 11:36:48;;;;;;;8.35;3.67;;;17.80;56.30;;;;;;5119509;27;45293;-64
2023/06/02 11:39:15;;;;;;;9.00;3.58;;;17.90;56.20;;;;;;5111381;27;46650;-64
2023/06/02 11:41:55;;;;;;;8.43;3.30;;;17.90;56.90;;;;;;5120932;27;45500;-64
2023/06/02 11:44:23;;;;;;;6.68;3.38;;;18.10;56.40;;;;;;5125796;27;45281;-64
2023/06/02 11:46:51;;;;;;;9.65;3.15;;;18.10;56.50;;;;;;5123169;27;45328;-64
2023/06/02 11:49:18;;;;;;;7.55;3.45;;;18.10;56.20;;;;;;5125233;27;48142;-64
2023/06/02 11:51:44;;;;;;;14.75;3.17;;;18.10;55.90;;;;;;5113741;27;46402;-64
2023/06/02 11:54:13;;;;;;;9.20;3.20;;;18.10;55.50;;;;;;5125086;27;45388;-64
2023/06/02 11:56:42;;;;;;;8.23;2.75;;;18.20;56.60;;;;;;5121008;27;45350;-64
2023/06/02 11:59:15;;;;;;;11.95;2.70;;;18.30;55.50;;;;;;5120486;27;45488;-65
2023/06/02 12:01:44;;;;;;;6.50;3.05;;;18.10;56.60;;;;;;5114111;27;45362;-64
2023/06/02 12:04:12;;;;;;;15.35;2.90;;;18.20;56.10;;;;;;5126024;27;45504;-64
2023/06/02 12:06:46;;;;;;;9.85;2.90;;;18.40;56.70;;;;;;5116577;27;45469;-64
2023/06/02 12:09:13;;;;;;;8.02;3.03;;;18.50;56.60;;;;;;5119237;27;45363;-64
2023/06/02 12:11:40;;;;;;;9.50;2.83;;;18.50;55.80;;;;;;5114633;27;45351;-65
2023/06/02 12:14:09;;;;;;;11.45;2.90;;;18.50;56.70;;;;;;5111858;27;45403;-65
2023/06/02 12:16:38;;;;;;;11.10;3.03;;;18.30;56.80;;;;;;5115668;27;45557;-66
2023/06/02 12:19:19;;;;;;;10.70;2.85;;;18.30;57.50;;;;;;5117193;27;45565;-64
2023/06/02 12:21:46;;;;;;;11.77;3.08;;;18.20;57.90;;;;;;5109175;27;45370;-64
2023/06/02 12:24:28;;;;;;;4.90;2.55;;;18.20;57.60;;;;;;5117334;27;45315;-64
2023/06/02 12:26:55;;;;;;;9.38;3.25;;;18.40;58.30;;;;;;5121291;27;45334;-64
2023/06/02 12:29:21;;;;;;;9.77;2.90;;;18.50;57.20;;;;;;5117047;27;46095;-64
2023/06/02 12:31:55;;;;;;;9.55;2.80;;;18.50;57.30;;;;;;5121901;27;45347;-65
2023/06/02 12:34:23;;;;;;;11.13;3.53;;;18.60;57.40;;;;;;5122693;27;45385;-64
2023/06/02 12:36:51;;;;;;;13.70;3.33;;;18.70;56.80;;;;;;5120019;27;45563;-65
2023/06/02 12:39:18;;;;;;;13.07;3.33;;;18.60;57.10;;;;;;5113154;27;46617;-64
2023/06/02 12:41:44;;;;;;;7.88;2.55;;;18.70;57.40;;;;;;5109096;27;45314;-65
2023/06/02 12:44:11;;;;;;;14.93;3.38;;;18.80;57.30;;;;;;5116006;27;45404;-64
2023/06/02 12:46:39;;;;;;;17.33;5.05;;;18.80;56.90;;;;;;5124306;27;45450;-64